Time;durP1;ratioP1;P1;durP2;ratioP2;P2;SDS_P1;SDS_P2;PMS_P1;PMS_P2;Temp;Humidity;BMP_temperature;BMP_pressure;BME280_temperature;BME280_humidity;BME280_pressure;Samples;Min_cycle;Max_cycle;Signal;HPM_P1;HPM_P2
2022/03/22 00:00:23;;;;;;;32.20;16.00;;;;;;;2.57;51.96;103005.98;107128;1251;67927;-66
2022/03/22 00:03:06;;;;;;;28.30;16.30;;;;;;;2.52;49.63;103006.18;107306;1251;73518;-66
2022/03/22 00:05:40;;;;;;;31.80;16.60;;;;;;;2.50;51.42;103012.38;107260;1251;62086;-67
2022/03/22 00:08:11;;;;;;;30.50;16.90;;;;;;;2.49;52.31;103013.41;107296;1251;60966;-67
2022/03/22 00:10:39;;;;;;;34.00;17.40;;;;;;;2.44;51.03;103013.59;107290;1252;74378;-67
2022/03/22 00:13:09;;;;;;;31.40;16.50;;;;;;;2.44;51.57;103013.08;107309;1251;70346;-68
2022/03/22 00:15:38;;;;;;;31.50;16.70;;;;;;;2.44;52.08;103006.88;106970;1253;69768;-67
2022/03/22 00:18:29;;;;;;;34.20;17.20;;;;;;;2.41;51.56;103004.84;107139;1253;72401;-68
2022/03/22 00:20:58;;;;;;;36.00;18.20;;;;;;;2.36;51.03;103001.04;107100;1251;58966;-69
2022/03/22 00:23:28;;;;;;;35.60;18.60;;;;;;;2.35;52.90;103000.71;107117;1252;62304;-63
2022/03/22 00:25:57;;;;;;;28.60;15.40;;;;;;;2.30;51.81;102999.16;107150;1250;72475;-67
2022/03/22 00:28:26;;;;;;;32.70;17.50;;;;;;;2.26;51.40;102999.34;106943;1252;69968;-67
2022/03/22 00:30:56;;;;;;;33.20;17.50;;;;;;;2.22;51.37;102999.69;106974;1252;71508;-66
2022/03/22 00:33:25;;;;;;;41.10;18.70;;;;;;;2.25;52.53;102998.48;107003;1251;73849;-67
2022/03/22 00:35:54;;;;;;;34.10;16.40;;;;;;;2.23;51.78;102994.54;107000;1251;60937;-67
2022/03/22 00:38:23;;;;;;;33.00;18.30;;;;;;;2.21;51.77;102994.70;106973;1251;62112;-64
2022/03/22 00:40:53;;;;;;;33.60;16.20;;;;;;;2.16;52.15;102994.03;107004;1251;71398;-63
2022/03/22 00:43:23;;;;;;;33.40;17.10;;;;;;;2.12;51.68;102991.63;107002;1251;72210;-63
2022/03/22 00:45:51;;;;;;;34.20;17.30;;;;;;;2.10;52.00;102988.88;106857;1253;69019;-64
2022/03/22 00:48:21;;;;;;;37.10;18.20;;;;;;;2.07;52.96;102983.20;107024;1251;73080;-65
2022/03/22 00:50:51;;;;;;;31.90;17.20;;;;;;;2.03;53.27;102983.55;106859;1250;60244;-61
2022/03/22 00:53:20;;;;;;;32.60;18.60;;;;;;;1.96;54.21;102979.77;106982;1251;61739;-67
2022/03/22 00:55:50;;;;;;;33.70;17.30;;;;;;;1.86;54.39;102979.09;107278;1251;72357;-64
2022/03/22 00:58:19;;;;;;;37.80;18.40;;;;;;;1.75;54.43;102978.23;107776;1243;72702;-68
2022/03/22 01:00:48;;;;;;;37.50;19.00;;;;;;;1.61;53.62;102983.71;107787;1243;69702;-66
2022/03/22 01:03:18;;;;;;;35.70;17.40;;;;;;;1.48;54.91;102978.89;107609;1245;72542;-65
2022/03/22 01:05:50;;;;;;;31.00;19.30;;;;;;;1.40;56.20;102979.71;107677;1244;59786;-63
2022/03/22 01:08:20;;;;;;;35.30;18.90;;;;;;;1.32;56.89;102981.09;107593;1244;61268;-66
2022/03/22 01:10:52;;;;;;;36.20;18.80;;;;;;;1.25;55.92;102977.46;107764;1243;72985;-63
2022/03/22 01:13:30;;;;;;;35.50;17.80;;;;;;;1.13;56.93;102978.27;107878;1245;70367;-62
2022/03/22 01:16:00;;;;;;;34.40;18.10;;;;;;;1.03;58.07;102971.39;107882;1243;69688;-65
2022/03/22 01:18:30;;;;;;;36.70;18.80;;;;;;;0.96;57.66;102972.74;107878;1243;74528;-62
2022/03/22 01:20:59;;;;;;;36.30;18.70;;;;;;;0.90;57.94;102972.54;107821;1244;59459;-62
2022/03/22 01:23:28;;;;;;;36.50;18.70;;;;;;;0.80;57.02;102976.45;107935;1243;60129;-61
2022/03/22 01:25:57;;;;;;;30.30;17.40;;;;;;;0.75;55.71;102973.86;107911;1243;72864;-62
2022/03/22 01:28:27;;;;;;;30.40;16.70;;;;;;;0.74;56.09;102972.31;107856;1243;72630;-61
2022/03/22 01:30:55;;;;;;;36.80;18.20;;;;;;;0.81;57.69;102975.94;107914;1243;72716;-62
2022/03/22 01:33:24;;;;;;;34.40;18.00;;;;;;;0.78;57.65;102970.27;107703;1243;74635;-62
2022/03/22 01:35:54;;;;;;;36.70;17.50;;;;;;;0.75;57.37;102972.66;107817;1243;60434;-62
2022/03/22 01:38:23;;;;;;;31.80;16.70;;;;;;;0.72;57.55;102972.46;107888;1243;62063;-66
2022/03/22 01:40:52;;;;;;;42.10;19.80;;;;;;;0.69;58.03;102974.52;107774;1244;75089;-64
2022/03/22 01:43:21;;;;;;;40.50;18.70;;;;;;;0.66;57.45;102975.19;107704;1243;71866;-66
2022/03/22 01:45:50;;;;;;;35.30;19.70;;;;;;;0.68;56.67;102973.48;107807;1243;71201;-63
2022/03/22 01:48:20;;;;;;;32.60;18.90;;;;;;;0.71;56.52;102972.46;107785;1243;75548;-62
2022/03/22 01:50:50;;;;;;;38.80;19.40;;;;;;;0.72;58.04;102974.70;107812;1243;61073;-62
2022/03/22 01:53:20;;;;;;;39.10;19.70;;;;;;;0.71;58.17;102973.84;107814;1243;60221;-63
2022/03/22 01:55:49;;;;;;;32.70;18.50;;;;;;;0.67;58.01;102973.47;107720;1243;72845;-67
2022/03/22 01:58:18;;;;;;;34.10;18.00;;;;;;;0.61;58.16;102971.21;107797;1243;72984;-63
2022/03/22 02:00:46;;;;;;;36.40;18.00;;;;;;;0.54;58.98;102972.21;107763;1243;72031;-67
2022/03/22 02:06:06;;;;;;;36.30;19.60;;;;;;;0.38;59.09;102975.20;107668;1243;60405;-65
2022/03/22 02:08:35;;;;;;;37.10;19.30;;;;;;;0.30;59.94;102976.34;107939;1245;59321;-65
2022/03/22 02:11:04;;;;;;;40.10;19.60;;;;;;;0.23;59.98;102972.37;107730;1245;71294;-66
2022/03/22 02:13:34;;;;;;;34.40;18.90;;;;;;;0.17;60.30;102974.89;107856;1243;69614;-64
2022/03/22 02:16:03;;;;;;;32.80;18.40;;;;;;;0.13;60.21;102972.30;107994;1242;68726;-65
2022/03/22 02:18:34;;;;;;;36.40;20.20;;;;;;;0.07;59.99;102971.05;108033;1243;73930;-64
2022/03/22 02:21:04;;;;;;;37.00;19.30;;;;;;;0.03;59.96;102971.88;107986;1243;62522;-64
2022/03/22 02:23:52;;;;;;;34.50;19.30;;;;;;;-0.01;61.26;102971.85;107736;1243;59830;-70
2022/03/22 02:26:23;;;;;;;36.50;19.70;;;;;;;-0.03;61.37;102974.92;107895;1243;72942;-67
2022/03/22 02:28:53;;;;;;;36.20;19.20;;;;;;;-0.08;60.91;102974.20;108007;1243;73578;-65
2022/03/22 02:31:24;;;;;;;35.60;19.40;;;;;;;-0.14;61.29;102970.38;108018;1243;70038;-66
2022/03/22 02:33:54;;;;;;;37.40;21.00;;;;;;;-0.19;61.55;102970.50;107942;1243;71227;-65
2022/03/22 02:36:23;;;;;;;41.90;20.00;;;;;;;-0.23;62.15;102968.06;107915;1243;60520;-67
2022/03/22 02:38:52;;;;;;;40.40;20.90;;;;;;;-0.28;61.94;102968.39;108034;1243;61306;-65
2022/03/22 02:41:27;;;;;;;38.60;19.30;;;;;;;-0.32;62.01;102970.74;107939;1243;72750;-65
2022/03/22 02:43:56;;;;;;;38.20;20.10;;;;;;;-0.35;61.99;102965.91;107803;1243;73196;-63
2022/03/22 02:46:25;;;;;;;40.90;20.80;;;;;;;-0.39;61.73;102962.45;107855;1243;71273;-64
2022/03/22 02:48:54;;;;;;;29.60;17.50;;;;;;;-0.44;62.23;102967.55;107780;1243;74705;-63
2022/03/22 02:51:23;;;;;;;39.60;19.90;;;;;;;-0.48;61.45;102969.39;107734;1245;60950;-63
2022/03/22 02:53:52;;;;;;;40.30;19.40;;;;;;;-0.50;62.78;102966.13;107788;1244;59045;-64
2022/03/22 02:56:21;;;;;;;35.50;19.90;;;;;;;-0.51;62.70;102966.10;107841;1244;71662;-64
2022/03/22 02:58:50;;;;;;;33.10;19.50;;;;;;;-0.52;62.97;102964.56;107772;1244;69698;-63
2022/03/22 03:01:19;;;;;;;35.50;19.40;;;;;;;-0.53;63.38;102965.59;107810;1243;68253;-64
2022/03/22 03:03:49;;;;;;;36.60;20.00;;;;;;;-0.57;63.34;102964.87;107845;1243;71301;-64
2022/03/22 03:06:19;;;;;;;38.10;21.00;;;;;;;-0.61;63.73;102964.65;107819;1243;60513;-63
2022/03/22 03:08:48;;;;;;;41.40;20.70;;;;;;;-0.63;63.74;102960.17;107864;1243;61561;-64
2022/03/22 03:11:17;;;;;;;39.10;21.30;;;;;;;-0.64;63.80;102961.01;107744;1243;73990;-63
2022/03/22 03:16:33;;;;;;;39.60;20.20;;;;;;;-0.68;64.42;102956.86;107800;1243;69332;-65
2022/03/22 03:19:03;;;;;;;38.60;20.20;;;;;;;-0.69;64.05;102954.45;107785;1243;71188;-63
2022/03/22 03:21:34;;;;;;;37.50;19.70;;;;;;;-0.68;64.19;102956.34;107689;1243;59200;-65
2022/03/22 03:24:03;;;;;;;40.60;19.70;;;;;;;-0.69;63.83;102952.76;107733;1243;61284;-66
2022/03/22 03:26:35;;;;;;;41.60;19.90;;;;;;;-0.70;64.25;102957.70;107663;1243;72578;-63
2022/03/22 03:29:05;;;;;;;38.70;19.60;;;;;;;-0.72;63.95;102958.21;107648;1245;70533;-65
2022/03/22 03:31:34;;;;;;;35.70;19.00;;;;;;;-0.75;64.04;102954.74;107673;1243;70017;-66
2022/03/22 03:34:04;;;;;;;34.40;19.60;;;;;;;-0.78;63.62;102952.84;107646;1243;71978;-62
2022/03/22 03:36:33;;;;;;;36.80;20.40;;;;;;;-0.82;63.65;102957.41;107552;1244;58915;-63
2022/03/22 03:39:04;;;;;;;42.40;19.50;;;;;;;-0.87;63.91;102959.59;107586;1245;59718;-63
2022/03/22 03:47:22;;;;;;;35.30;19.70;;;;;;;-1.00;64.00;102964.05;107716;1243;69259;-64
2022/03/22 03:50:05;;;;;;;40.50;19.00;;;;;;;-1.02;64.51;102961.99;107632;1243;72366;-64
2022/03/22 03:52:37;;;;;;;35.30;19.30;;;;;;;-1.02;64.81;102965.23;107620;1243;61759;-65
2022/03/22 03:55:07;;;;;;;39.60;19.40;;;;;;;-1.00;65.15;102964.73;107638;1243;61543;-65
2022/03/22 03:57:36;;;;;;;37.50;20.00;;;;;;;-0.99;65.43;102968.17;107517;1245;71731;-65
2022/03/22 04:00:07;;;;;;;37.70;19.90;;;;;;;-0.99;65.00;102969.89;107585;1243;72497;-66
2022/03/22 04:02:43;;;;;;;43.60;21.70;;;;;;;-0.98;65.37;102969.89;107327;1246;69398;-64
2022/03/22 04:05:12;;;;;;;44.50;21.40;;;;;;;-1.00;65.08;102975.87;107501;1244;73886;-63
2022/03/22 04:07:41;;;;;;;43.60;22.60;;;;;;;-0.99;65.31;102975.70;107606;1245;58859;-65
2022/03/22 04:10:10;;;;;;;44.90;22.60;;;;;;;-0.99;65.35;102979.11;107714;1244;61131;-65
2022/03/22 04:12:44;;;;;;;50.30;23.10;;;;;;;-0.99;65.75;102978.27;107703;1243;71699;-65
2022/03/22 04:15:13;;;;;;;39.00;22.40;;;;;;;-1.01;65.00;102980.79;107669;1244;71007;-66
2022/03/22 04:17:42;;;;;;;45.20;22.00;;;;;;;-1.06;64.73;102973.91;107629;1246;70901;-64
2022/03/22 04:20:12;;;;;;;39.90;21.10;;;;;;;-1.07;65.53;102979.02;107631;1244;71178;-64
2022/03/22 04:22:42;;;;;;;36.70;19.40;;;;;;;-1.07;65.78;102981.95;107677;1243;59787;-65
2022/03/22 04:25:11;;;;;;;45.70;23.00;;;;;;;-1.08;65.94;102982.80;107481;1245;60761;-65
2022/03/22 04:33:42;;;;;;;47.90;24.30;;;;;;;-0.96;65.48;102994.39;107664;1243;71276;-69
2022/03/22 04:36:12;;;;;;;52.60;25.30;;;;;;;-0.94;64.90;102987.39;107716;1242;73320;-69
2022/03/22 04:38:41;;;;;;;41.50;21.00;;;;;;;-0.90;64.73;102988.63;109361;1243;59749;-68
2022/03/22 04:41:10;;;;;;;45.50;21.90;;;;;;;-0.87;64.56;102988.48;107739;1243;60408;-69
2022/03/22 04:43:39;;;;;;;48.40;22.60;;;;;;;-0.82;62.99;102985.81;107681;1243;70964;-69
2022/03/22 04:46:08;;;;;;;49.10;22.90;;;;;;;-0.73;64.62;102986.42;107571;1244;70678;-67
2022/03/22 04:48:43;;;;;;;46.50;23.20;;;;;;;-0.70;63.81;102987.32;107674;1243;68159;-69
2022/03/22 04:56:49;;;;;;;42.90;23.20;;;;;;;-0.55;65.32;102991.07;107780;1243;58976;-68
2022/03/22 04:59:22;;;;;;;51.10;23.50;;;;;;;-0.47;65.30;102989.79;107689;1243;72058;-61
2022/03/22 05:01:51;;;;;;;51.50;23.50;;;;;;;-0.39;65.51;102999.10;107724;1243;72235;-69
2022/03/22 05:04:21;;;;;;;51.40;23.60;;;;;;;-0.34;64.36;102997.42;107696;1244;69096;-67
2022/03/22 05:06:50;;;;;;;33.00;15.80;;;;;;;-0.25;65.20;102998.02;107894;1243;73950;-70
2022/03/22 05:09:20;;;;;;;38.40;18.20;;;;;;;-0.15;63.17;102995.38;107747;1243;59092;-71
2022/03/22 05:11:49;;;;;;;36.70;18.60;;;;;;;-0.04;62.50;102996.84;107663;1244;61227;-70
2022/03/22 05:14:18;;;;;;;38.00;18.40;;;;;;;0.10;62.05;103002.43;107847;1243;71152;-66
2022/03/22 05:16:47;;;;;;;41.10;19.30;;;;;;;0.26;62.05;103003.23;107965;1243;70304;-67
2022/03/22 05:19:17;;;;;;;40.10;21.40;;;;;;;0.43;63.40;103001.98;107697;1246;67954;-71
2022/03/22 05:21:46;;;;;;;44.50;21.00;;;;;;;0.58;64.37;103006.00;107738;1246;72054;-70
2022/03/22 05:24:15;;;;;;;41.30;21.90;;;;;;;0.73;64.27;103005.92;107937;1245;59292;-72
2022/03/22 05:26:46;;;;;;;44.80;23.70;;;;;;;0.90;64.01;103003.42;107747;1243;59763;-72
2022/03/22 05:29:17;;;;;;;47.40;22.20;;;;;;;1.05;63.14;103009.50;107652;1243;70740;-70
2022/03/22 05:31:46;;;;;;;47.70;23.20;;;;;;;1.22;62.83;103004.92;107623;1246;71602;-72
2022/03/22 05:34:15;;;;;;;42.10;23.10;;;;;;;1.47;62.25;103006.02;107406;1243;70953;-71
2022/03/22 05:36:44;;;;;;;46.50;23.30;;;;;;;1.57;61.61;103005.17;107437;1244;74170;-72
2022/03/22 05:39:13;;;;;;;39.10;21.50;;;;;;;1.68;61.00;103004.67;107701;1243;58998;-72
2022/03/22 05:41:43;;;;;;;45.20;21.10;;;;;;;1.81;60.88;103006.23;107828;1243;60519;-71
2022/03/22 05:44:13;;;;;;;42.60;19.40;;;;;;;1.94;60.17;103007.61;107880;1243;71661;-71
2022/03/22 05:46:42;;;;;;;30.00;15.80;;;;;;;2.07;60.02;103008.99;107630;1243;72470;-72
2022/03/22 05:49:13;;;;;;;40.30;20.40;;;;;;;2.23;60.06;103007.77;107766;1243;71384;-73
2022/03/22 05:51:42;;;;;;;35.10;15.90;;;;;;;2.39;59.68;103013.41;107724;1245;72697;-73
2022/03/22 05:54:11;;;;;;;28.70;16.10;;;;;;;2.52;59.30;103015.30;107720;1244;59163;-71
2022/03/22 05:56:40;;;;;;;29.50;16.00;;;;;;;2.65;58.88;103010.45;107858;1243;59208;-71
2022/03/22 05:59:09;;;;;;;32.30;17.30;;;;;;;2.81;58.61;103015.55;107817;1243;71169;-71
2022/03/22 06:01:39;;;;;;;31.30;17.80;;;;;;;2.98;58.33;103018.95;107758;1243;70377;-71
2022/03/22 06:04:09;;;;;;;35.80;17.30;;;;;;;3.12;58.18;103017.51;107671;1245;70289;-73
2022/03/22 06:06:40;;;;;;;30.00;14.70;;;;;;;3.29;57.48;103016.38;107610;1246;71268;-70
2022/03/22 06:09:11;;;;;;;34.00;17.50;;;;;;;3.43;57.26;103017.86;107767;1243;61069;-71
2022/03/22 06:11:41;;;;;;;35.50;18.40;;;;;;;3.57;56.86;103019.33;107930;1243;60601;-72
2022/03/22 06:14:10;;;;;;;32.80;16.60;;;;;;;3.73;56.64;103020.43;107989;1243;73662;-72
2022/03/22 06:16:39;;;;;;;27.50;16.40;;;;;;;3.90;56.45;103019.09;107808;1244;71292;-71
2022/03/22 06:19:08;;;;;;;35.20;18.10;;;;;;;4.10;55.73;103022.73;107493;1243;69485;-71
2022/03/22 06:21:37;;;;;;;32.00;17.40;;;;;;;4.22;55.37;103022.79;107628;1243;71619;-72
2022/03/22 06:24:07;;;;;;;30.00;17.10;;;;;;;4.38;55.26;103019.88;107663;1245;59429;-72
2022/03/22 06:26:36;;;;;;;33.00;18.10;;;;;;;4.51;54.93;103020.27;107497;1243;59682;-72
2022/03/22 06:29:05;;;;;;;28.50;16.10;;;;;;;4.64;54.60;103016.16;107702;1243;73684;-73
2022/03/22 06:31:35;;;;;;;28.20;13.40;;;;;;;4.77;54.43;103016.20;107654;1246;73773;-72
2022/03/22 06:34:04;;;;;;;32.90;16.20;;;;;;;4.89;54.04;103007.92;107582;1243;71442;-71
2022/03/22 06:36:33;;;;;;;28.20;15.50;;;;;;;5.04;53.99;103007.58;107634;1243;75273;-71
2022/03/22 06:39:04;;;;;;;27.70;15.00;;;;;;;5.20;53.50;103006.33;106950;1244;566263;-71
2022/03/22 06:41:32;;;;;;;26.20;15.30;;;;;;;5.37;53.10;103010.77;109864;1243;61209;-72
2022/03/22 06:44:01;;;;;;;33.70;16.90;;;;;;;5.48;52.94;103012.16;109966;1243;72656;-72
2022/03/22 06:46:32;;;;;;;32.60;16.00;;;;;;;5.59;52.56;103013.56;109988;1243;71310;-72
2022/03/22 06:49:01;;;;;;;27.80;15.10;;;;;;;5.73;52.45;103015.60;109987;1243;68100;-72
2022/03/22 06:51:30;;;;;;;34.90;16.00;;;;;;;5.88;52.16;103016.77;107899;1243;73130;-72
2022/03/22 06:53:59;;;;;;;29.90;15.60;;;;;;;6.05;51.86;103016.66;107565;1243;61515;-72
2022/03/22 06:56:28;;;;;;;27.80;14.60;;;;;;;6.22;51.41;103018.11;107739;1243;61818;-71
2022/03/22 06:58:58;;;;;;;27.00;14.50;;;;;;;6.32;51.25;103012.05;107701;1243;73352;-72
2022/03/22 07:01:27;;;;;;;31.50;16.00;;;;;;;6.40;51.00;103010.00;107812;1243;71454;-72
2022/03/22 07:03:57;;;;;;;29.60;15.50;;;;;;;6.51;50.56;103005.12;107566;1245;68671;-73
2022/03/22 07:06:25;;;;;;;30.90;16.30;;;;;;;6.64;50.49;103009.36;107590;1243;74914;-72
2022/03/22 07:08:54;;;;;;;28.80;12.10;;;;;;;6.77;50.19;103010.34;107590;1245;59012;-72
2022/03/22 07:14:10;;;;;;;23.70;14.30;;;;;;;7.01;49.73;103006.39;107654;1243;72920;-71
2022/03/22 07:16:39;;;;;;;24.40;14.80;;;;;;;7.13;49.34;103004.21;107596;1245;72426;-72
2022/03/22 07:19:08;;;;;;;23.00;13.20;;;;;;;7.24;49.32;103005.20;107675;1243;71605;-73
2022/03/22 07:21:37;;;;;;;25.90;13.40;;;;;;;7.37;49.01;102999.02;107561;1246;74145;-71
2022/03/22 07:24:08;;;;;;;24.30;14.10;;;;;;;7.51;48.99;103004.05;107562;1243;59477;-72
2022/03/22 07:26:40;;;;;;;26.80;14.30;;;;;;;7.64;48.57;103000.11;107633;1243;60088;-73
2022/03/22 07:29:09;;;;;;;24.50;13.50;;;;;;;7.76;48.17;102997.23;107732;1243;71144;-73
2022/03/22 07:31:39;;;;;;;24.60;13.70;;;;;;;7.81;48.08;103004.74;107534;1246;70749;-72
2022/03/22 07:34:12;;;;;;;25.70;13.90;;;;;;;7.91;47.85;103000.85;107724;1243;68928;-73
2022/03/22 07:36:42;;;;;;;24.60;14.70;;;;;;;7.84;48.05;102997.72;107565;1243;74550;-72
2022/03/22 07:39:22;;;;;;;26.70;14.10;;;;;;;7.91;47.89;102999.13;107635;1243;60372;-71
2022/03/22 07:41:51;;;;;;;25.10;13.80;;;;;;;8.06;47.48;103000.98;107651;1243;62096;-71
2022/03/22 07:44:21;;;;;;;25.80;14.50;;;;;;;8.24;47.49;103010.08;107591;1244;73827;-71
2022/03/22 07:46:50;;;;;;;23.00;13.80;;;;;;;8.38;47.07;103013.91;107641;1244;69651;-71
2022/03/22 07:55:25;;;;;;;25.50;14.50;;;;;;;8.65;46.49;103003.79;107818;1244;60612;-72
2022/03/22 07:57:55;;;;;;;22.10;12.80;;;;;;;8.79;46.20;103003.74;107722;1243;62693;-69
2022/03/22 08:00:31;;;;;;;26.70;14.60;;;;;;;8.91;46.12;103002.34;107690;1243;73951;-70
2022/03/22 08:03:03;;;;;;;24.60;13.40;;;;;;;8.99;45.74;102996.90;107713;1245;70779;-71
2022/03/22 08:05:35;;;;;;;23.70;13.40;;;;;;;9.12;45.52;103000.17;107534;1246;68108;-72
2022/03/22 08:08:04;;;;;;;24.20;14.90;;;;;;;9.10;45.34;102996.39;107639;1245;72948;-70
2022/03/22 08:10:53;;;;;;;23.40;13.90;;;;;;;9.16;45.48;102991.70;107642;1245;61630;-71
2022/03/22 08:13:23;;;;;;;23.50;13.30;;;;;;;9.30;45.24;102990.94;107639;1243;60355;-71
2022/03/22 08:15:52;;;;;;;23.50;14.00;;;;;;;9.51;44.93;102988.38;107504;1244;72647;-71
2022/03/22 08:18:21;;;;;;;22.00;13.50;;;;;;;9.65;44.45;102988.23;107818;1244;72209;-72
2022/03/22 08:20:50;;;;;;;23.50;12.10;;;;;;;9.80;44.47;102991.43;107727;1244;70555;-72
2022/03/22 08:23:20;;;;;;;25.80;13.90;;;;;;;9.91;44.48;102992.98;107846;1245;74219;-72
2022/03/22 08:25:51;;;;;;;19.70;11.40;;;;;;;10.06;44.01;102988.27;107895;1243;63164;-70
2022/03/22 08:28:21;;;;;;;18.30;11.30;;;;;;;10.29;43.97;102995.38;107868;1243;59977;-73
2022/03/22 08:30:50;;;;;;;22.90;12.60;;;;;;;10.39;43.17;102989.48;107840;1243;71524;-72
2022/03/22 08:33:20;;;;;;;22.70;12.10;;;;;;;10.54;43.16;102987.52;107703;1244;73147;-73
2022/03/22 08:35:52;;;;;;;24.90;11.90;;;;;;;10.75;42.71;102993.70;107901;1243;69515;-73
2022/03/22 08:38:23;;;;;;;22.30;12.70;;;;;;;10.92;42.20;102994.46;107873;1246;73653;-72
2022/03/22 08:40:56;;;;;;;23.90;11.50;;;;;;;11.03;41.79;102989.16;108142;1244;60966;-72
2022/03/22 08:43:28;;;;;;;22.10;10.90;;;;;;;11.15;41.47;102985.75;107681;1243;61567;-72
2022/03/22 08:45:57;;;;;;;17.10;10.00;;;;;;;11.30;41.64;102991.08;108098;1243;72303;-72
2022/03/22 08:48:27;;;;;;;18.50;10.90;;;;;;;11.34;40.73;102996.54;107755;1243;72683;-71
2022/03/22 08:50:57;;;;;;;21.90;11.50;;;;;;;11.39;40.94;102987.41;107931;1243;70738;-74
2022/03/22 08:53:27;;;;;;;18.10;11.40;;;;;;;11.41;40.99;102990.13;107866;1244;75419;-73
2022/03/22 08:55:55;;;;;;;17.90;10.60;;;;;;;11.46;40.90;102982.79;107633;1245;60606;-73
2022/03/22 08:58:24;;;;;;;21.40;10.30;;;;;;;11.59;40.54;102986.79;107626;1243;61815;-73
2022/03/22 09:00:54;;;;;;;19.00;10.30;;;;;;;11.67;39.76;102991.01;107621;1243;74233;-73
2022/03/22 09:03:26;;;;;;;19.10;9.70;;;;;;;11.70;39.68;102980.41;107607;1246;70823;-72
2022/03/22 09:06:08;;;;;;;17.00;10.10;;;;;;;11.93;39.60;102988.73;107635;1244;70497;-73
2022/03/22 09:08:42;;;;;;;19.90;9.80;;;;;;;12.08;39.24;102986.70;107786;1244;72954;-74
2022/03/22 09:11:11;;;;;;;17.20;9.80;;;;;;;12.20;39.08;102980.08;107828;1243;61344;-72
2022/03/22 09:13:41;;;;;;;18.20;9.60;;;;;;;12.20;38.55;102973.95;107531;1247;61909;-72
2022/03/22 09:16:13;;;;;;;17.00;9.90;;;;;;;12.37;38.73;102975.17;107941;1243;71822;-77
2022/03/22 09:18:44;;;;;;;17.30;9.50;;;;;;;12.49;38.17;102963.80;107680;1243;70915;-73
2022/03/22 09:21:15;;;;;;;16.30;8.30;;;;;;;12.41;38.07;102956.44;107688;1243;69698;-74
2022/03/22 09:23:44;;;;;;;13.50;8.20;;;;;;;12.63;37.95;102948.46;107700;1244;71379;-75
2022/03/22 09:26:13;;;;;;;16.80;8.20;;;;;;;12.63;37.73;102941.09;107788;1243;58941;-73
2022/03/22 09:28:42;;;;;;;16.70;8.60;;;;;;;12.83;37.83;102937.05;107780;1243;59378;-75
2022/03/22 09:31:12;;;;;;;16.10;7.50;;;;;;;13.02;37.30;102934.96;107784;1243;74130;-72
2022/03/22 09:33:41;;;;;;;12.50;7.20;;;;;;;13.05;36.12;102933.73;107768;1245;69767;-71
2022/03/22 09:36:10;;;;;;;12.60;7.20;;;;;;;13.06;35.59;102931.09;107935;1244;67941;-74
2022/03/22 09:38:44;;;;;;;12.70;7.50;;;;;;;13.19;35.71;102934.67;107968;1246;72321;-75
2022/03/22 09:41:16;;;;;;;15.60;7.60;;;;;;;13.22;35.22;102933.80;107977;1245;62138;-74
2022/03/22 09:43:48;;;;;;;16.50;7.80;;;;;;;13.29;35.24;102920.02;108048;1244;59007;-75
2022/03/22 09:46:19;;;;;;;17.70;7.40;;;;;;;13.54;35.47;102923.17;108279;1244;71706;-73
2022/03/22 09:48:49;;;;;;;13.70;6.30;;;;;;;13.74;34.30;102920.58;107979;1244;69648;-73
2022/03/22 09:54:07;;;;;;;16.30;7.30;;;;;;;13.71;32.33;102917.41;108299;1244;73337;-74
2022/03/22 09:56:36;;;;;;;14.60;6.10;;;;;;;13.71;31.91;102913.55;108137;1244;61402;-73
2022/03/22 09:59:05;;;;;;;13.70;6.00;;;;;;;13.77;31.97;102916.55;107809;1246;61747;-77
2022/03/22 10:01:36;;;;;;;12.90;6.40;;;;;;;13.85;32.03;102906.34;107897;1244;74543;-73
2022/03/22 10:04:13;;;;;;;14.80;6.10;;;;;;;13.97;31.77;102904.17;107837;1244;72661;-73
2022/03/22 10:06:57;;;;;;;13.80;7.40;;;;;;;14.11;31.07;102900.81;107650;1244;70273;-72
2022/03/22 10:09:39;;;;;;;18.30;6.50;;;;;;;14.23;30.36;102901.73;107837;1244;71560;-72
2022/03/22 10:12:10;;;;;;;11.50;5.10;;;;;;;14.31;30.23;102895.15;107624;1244;61852;-73
2022/03/22 10:14:41;;;;;;;14.20;5.60;;;;;;;14.45;29.86;102892.52;107653;1245;62608;-74
2022/03/22 10:17:16;;;;;;;13.90;6.00;;;;;;;14.49;29.52;102891.95;107596;1244;72155;-72
2022/03/22 10:19:51;;;;;;;12.80;6.50;;;;;;;14.54;29.10;102889.22;107726;1245;71437;-74
2022/03/22 10:22:26;;;;;;;15.30;6.30;;;;;;;14.57;29.27;102890.47;107637;1244;68394;-72
2022/03/22 10:25:00;;;;;;;10.70;5.40;;;;;;;14.64;29.41;102879.05;107700;1243;72864;-72
2022/03/22 10:27:36;;;;;;;12.30;5.50;;;;;;;14.64;28.48;102882.02;107863;1243;61021;-73
2022/03/22 10:30:27;;;;;;;13.70;5.70;;;;;;;14.61;27.91;102875.33;107880;1244;60098;-72
2022/03/22 10:32:57;;;;;;;15.80;5.90;;;;;;;14.79;27.77;102871.89;107932;1244;72642;-72
2022/03/22 10:35:32;;;;;;;12.30;5.30;;;;;;;14.97;27.38;102864.02;107907;1245;72581;-72
2022/03/22 10:38:04;;;;;;;10.60;5.10;;;;;;;15.38;26.99;102856.70;107566;1246;71544;-70
2022/03/22 10:40:44;;;;;;;13.30;5.80;;;;;;;15.61;25.64;102854.49;107651;1245;74385;-73
2022/03/22 10:43:26;;;;;;;10.90;5.60;;;;;;;15.55;25.01;102843.11;107623;1244;58979;-72
2022/03/22 10:46:00;;;;;;;14.10;5.40;;;;;;;15.88;24.77;102852.53;107989;1244;60054;-72
2022/03/22 10:48:34;;;;;;;10.70;5.50;;;;;;;16.14;24.81;102843.75;107727;1245;73018;-72
2022/03/22 10:51:03;;;;;;;10.50;6.00;;;;;;;16.30;24.51;102839.77;107827;1243;73509;-72
2022/03/22 10:53:35;;;;;;;10.00;5.30;;;;;;;16.58;24.58;102833.22;107740;1245;72684;-71
2022/03/22 10:56:05;;;;;;;10.90;5.90;;;;;;;16.91;24.46;102826.48;107803;1243;74745;-72
2022/03/22 10:58:37;;;;;;;11.20;5.80;;;;;;;16.85;23.63;102825.67;107744;1245;61218;-72
2022/03/22 11:01:14;;;;;;;10.70;5.70;;;;;;;17.02;23.79;102827.22;107551;1243;61090;-74
2022/03/22 11:03:44;;;;;;;10.30;5.50;;;;;;;17.12;23.47;102826.69;107699;1243;74486;-71
2022/03/22 11:06:15;;;;;;;10.20;5.20;;;;;;;17.14;23.68;102827.30;107707;1245;70210;-73
2022/03/22 11:08:44;;;;;;;10.20;5.50;;;;;;;17.58;23.75;102819.21;107822;1243;68584;-73
2022/03/22 11:11:18;;;;;;;9.40;5.10;;;;;;;17.11;23.11;102813.94;107773;1245;73280;-75
2022/03/22 11:13:47;;;;;;;8.90;4.80;;;;;;;17.16;22.89;102818.35;107996;1244;59110;-74
2022/03/22 11:16:20;;;;;;;10.80;5.00;;;;;;;17.54;22.78;102811.02;107754;1245;61630;-72
2022/03/22 11:18:50;;;;;;;12.20;5.40;;;;;;;17.86;22.16;102809.70;107832;1244;74737;-73
2022/03/22 11:21:19;;;;;;;10.50;5.10;;;;;;;17.98;22.24;102801.77;107804;1243;71928;-71
2022/03/22 11:23:50;;;;;;;11.20;4.80;;;;;;;18.01;21.68;102796.98;107680;1244;71549;-73
2022/03/22 11:26:23;;;;;;;11.70;4.70;;;;;;;17.99;21.16;102798.55;107736;1243;72307;-73
2022/03/22 11:28:53;;;;;;;10.60;5.70;;;;;;;18.30;21.01;102793.53;107748;1244;59730;-71
2022/03/22 11:31:26;;;;;;;13.00;5.50;;;;;;;17.85;20.85;102782.95;107746;1243;61715;-72
2022/03/22 11:34:13;;;;;;;10.30;5.00;;;;;;;18.14;20.77;102781.62;110061;1243;73133;-74
2022/03/22 11:36:53;;;;;;;10.60;4.60;;;;;;;18.61;20.45;102775.40;108893;1244;73279;-73
2022/03/22 11:42:27;;;;;;;9.70;4.30;;;;;;;18.86;20.18;102787.44;107984;1244;65366;-74
2022/03/22 11:45:07;;;;;;;7.60;4.30;;;;;;;19.14;19.83;102781.48;110164;1243;61761;-75
2022/03/22 11:47:44;;;;;;;9.50;4.40;;;;;;;19.19;19.93;102775.79;108439;1244;59388;-73
2022/03/22 11:50:16;;;;;;;9.20;3.90;;;;;;;19.35;19.96;102768.17;107841;1245;73743;-73
2022/03/22 11:52:48;;;;;;;10.00;4.50;;;;;;;19.66;19.26;102772.37;107995;1245;70853;-74
2022/03/22 11:55:26;;;;;;;9.40;4.70;;;;;;;19.42;19.00;102768.38;107882;1244;60366;-73
2022/03/22 11:58:08;;;;;;;11.00;5.20;;;;;;;19.69;18.53;102762.85;107778;1244;63274;-74
2022/03/22 12:00:46;;;;;;;9.80;5.00;;;;;;;19.51;18.46;102764.45;107901;1245;60484;-73